Terminal Aerodrome Forecast
Issued by NWS Brownsville, TX

Home | Current Version | Previous Version | Text Only | Print | Product List | Glossary On
Versions: 1 2 3 4 5 6 7 8 9 10 11 12 13 14 15 16 17 18 19 20
838
FTUS44 KBRO 192320
TAFMFE
TAF
KMFE 192320Z 2000/2024 12017KT P6SM BKN060 BKN080
     FM200300 14010KT P6SM SKC
     FM201000 13006KT P6SM SCT020
     FM201500 15010KT P6SM FEW030
     FM201800 13011G17KT P6SM SKC=

USA.gov is the U.S. government's official web portal to all federal, state and local government web resources and services.